createdAt,value
2023-02-24T00:01:32.302Z,12.35
2023-02-24T00:04:00.291Z,11.73
2023-02-24T00:06:36.867Z,7.40
2023-02-24T00:09:06.439Z,10.52
2023-02-24T00:11:33.244Z,7.22
2023-02-24T00:14:00.380Z,7.40
2023-02-24T00:16:27.873Z,7.10
2023-02-24T00:18:55.014Z,9.27
2023-02-24T00:21:22.945Z,7.47
2023-02-24T00:23:49.779Z,9.13
2023-02-24T00:26:16.826Z,6.85
2023-02-24T00:28:44.662Z,9.35
2023-02-24T00:31:16.537Z,8.57
2023-02-24T00:33:44.138Z,11.00
2023-02-24T00:36:11.155Z,8.30
2023-02-24T00:38:38.784Z,6.88
2023-02-24T00:41:12.673Z,8.70
2023-02-24T00:43:39.484Z,6.72
2023-02-24T00:46:11.374Z,7.05
2023-02-24T00:48:41.691Z,13.82
2023-02-24T00:51:10.319Z,7.60
2023-02-24T00:53:38.470Z,6.63
2023-02-24T00:56:12.111Z,5.45
2023-02-24T00:58:40.982Z,7.60
2023-02-24T01:01:18.112Z,9.43
2023-02-24T01:03:45.772Z,5.97
2023-02-24T01:06:13.623Z,8.35
2023-02-24T01:08:47.455Z,5.20
2023-02-24T01:11:33.774Z,12.15
2023-02-24T01:14:00.766Z,5.20
2023-02-24T01:16:28.637Z,12.32
2023-02-24T01:18:55.565Z,8.55
2023-02-24T01:21:22.813Z,9.35
2023-02-24T01:23:50.544Z,6.00
2023-02-24T01:26:18.328Z,10.07
2023-02-24T01:28:48.269Z,11.35
2023-02-24T01:31:21.183Z,7.80
2023-02-24T01:33:50.583Z,8.07
2023-02-24T01:36:22.284Z,6.07
2023-02-24T01:41:20.439Z,9.75
2023-02-24T01:44:14.178Z,9.70
2023-02-24T01:46:48.508Z,7.90
2023-02-24T01:49:18.356Z,4.57
2023-02-24T01:51:50.771Z,6.97
2023-02-24T01:54:22.118Z,10.52
2023-02-24T01:56:52.460Z,14.02
2023-02-24T01:59:20.838Z,5.82
2023-02-24T02:01:48.082Z,14.55
2023-02-24T02:04:19.866Z,8.30
2023-02-24T02:06:47.493Z,6.28
2023-02-24T02:09:15.796Z,12.20
2023-02-24T02:11:52.323Z,7.18
2023-02-24T02:14:20.911Z,10.60
2023-02-24T02:17:02.937Z,10.20
2023-02-24T02:19:47.876Z,5.65
2023-02-24T02:22:45.351Z,19.52
2023-02-24T02:25:16.607Z,10.45
2023-02-24T02:27:46.592Z,9.88
2023-02-24T02:30:23.397Z,5.53
2023-02-24T02:33:08.788Z,7.68
2023-02-24T02:35:38.728Z,9.60
2023-02-24T02:38:05.519Z,8.55
2023-02-24T02:40:41.774Z,4.90
2023-02-24T02:43:08.603Z,20.42
2023-02-24T02:45:41.312Z,12.77
2023-02-24T02:48:11.896Z,7.63
2023-02-24T02:50:43.299Z,13.20
2023-02-24T02:53:12.470Z,5.45
2023-02-24T02:55:45.687Z,10.07
2023-02-24T02:58:20.066Z,6.65
2023-02-24T03:00:58.799Z,7.65
2023-02-24T03:03:27.935Z,8.80
2023-02-24T03:05:57.390Z,10.93
2023-02-24T03:08:25.840Z,6.15
2023-02-24T03:10:53.873Z,7.85
2023-02-24T03:13:23.109Z,10.45
2023-02-24T03:15:53.767Z,10.75
2023-02-24T03:18:29.412Z,8.43
2023-02-24T03:21:01.790Z,7.93
2023-02-24T03:23:36.865Z,6.75
2023-02-24T03:26:17.515Z,10.40
2023-02-24T03:29:06.713Z,7.63
2023-02-24T03:31:39.234Z,10.15
2023-02-24T03:34:10.717Z,6.20
2023-02-24T03:36:37.833Z,9.23
2023-02-24T03:39:05.975Z,10.23
2023-02-24T03:41:41.173Z,9.00
2023-02-24T03:44:11.236Z,11.77
2023-02-24T03:46:39.115Z,9.07
2023-02-24T03:49:16.587Z,11.85
2023-02-24T03:51:49.470Z,15.55
2023-02-24T03:54:35.021Z,14.27
2023-02-24T03:57:02.220Z,11.43
2023-02-24T03:59:36.168Z,10.38
2023-02-24T04:02:22.121Z,8.05
2023-02-24T04:04:49.418Z,9.88
2023-02-24T04:07:42.552Z,15.88
2023-02-24T04:10:21.638Z,4.47
2023-02-24T04:13:03.772Z,9.07
2023-02-24T04:15:45.586Z,6.65
2023-02-24T04:20:43.949Z,5.22
2023-02-24T04:23:16.282Z,6.57
2023-02-24T04:25:45.346Z,11.18
2023-02-24T04:28:12.830Z,4.40
2023-02-24T04:30:42.317Z,8.60
2023-02-24T04:33:10.107Z,5.80
2023-02-24T04:35:38.045Z,3.53
2023-02-24T04:38:05.407Z,6.38
2023-02-24T04:40:32.841Z,10.75
2023-02-24T04:43:02.804Z,6.55
2023-02-24T04:45:30.557Z,5.35
2023-02-24T04:48:02.375Z,8.30
2023-02-24T04:52:57.438Z,9.30
2023-02-24T04:55:26.519Z,4.63
2023-02-24T04:57:53.997Z,5.90
2023-02-24T05:00:26.477Z,6.47
2023-02-24T05:02:56.043Z,9.43
2023-02-24T05:05:25.867Z,10.27
2023-02-24T05:07:54.658Z,7.50
2023-02-24T05:10:22.630Z,10.60
2023-02-24T05:12:49.626Z,3.45
2023-02-24T05:15:16.791Z,4.60
2023-02-24T05:17:43.883Z,9.70
2023-02-24T05:20:29.579Z,7.28
2023-02-24T05:22:57.130Z,5.82
2023-02-24T05:25:25.323Z,4.63
2023-02-24T05:27:52.172Z,7.43
2023-02-24T05:30:19.097Z,6.07
2023-02-24T05:32:45.920Z,4.13
2023-02-24T05:35:12.732Z,16.83
2023-02-24T05:37:42.131Z,10.50
2023-02-24T05:40:13.323Z,6.95
2023-02-24T05:42:40.944Z,8.98
2023-02-24T05:45:09.165Z,5.38
2023-02-24T05:47:37.076Z,7.82
2023-02-24T05:50:04.448Z,7.85
2023-02-24T05:52:31.617Z,14.18
2023-02-24T05:55:00.845Z,5.38
2023-02-24T05:57:32.929Z,8.07
2023-02-24T05:59:59.675Z,6.40
2023-02-24T06:02:37.245Z,6.05
2023-02-24T06:05:04.557Z,9.23
2023-02-24T06:07:34.564Z,12.02
2023-02-24T06:10:01.980Z,5.38
2023-02-24T06:12:30.143Z,11.93
2023-02-24T06:15:00.192Z,5.65
2023-02-24T06:17:28.403Z,6.68
2023-02-24T06:19:55.569Z,9.93
2023-02-24T06:22:23.215Z,14.82
2023-02-24T06:24:50.210Z,11.50
2023-02-24T06:27:19.607Z,12.38
2023-02-24T06:29:50.038Z,14.80
2023-02-24T06:32:21.326Z,11.15
2023-02-24T06:34:48.232Z,16.35
2023-02-24T06:37:15.849Z,11.98
2023-02-24T06:39:43.269Z,12.63
2023-02-24T06:42:11.858Z,7.65
2023-02-24T06:44:39.811Z,15.20
2023-02-24T06:47:08.118Z,16.95
2023-02-24T06:49:34.925Z,24.30
2023-02-24T06:52:01.821Z,24.30
2023-02-24T06:54:30.647Z,16.58
2023-02-24T06:57:00.347Z,11.45
2023-02-24T06:59:30.638Z,23.40
2023-02-24T07:02:02.014Z,9.52
2023-02-24T07:04:29.706Z,11.80
2023-02-24T07:06:58.214Z,24.67
2023-02-24T07:09:26.074Z,12.65
2023-02-24T07:11:56.171Z,23.23
2023-02-24T07:14:24.588Z,16.40
2023-02-24T07:16:55.190Z,5.75
2023-02-24T07:19:23.863Z,3.83
2023-02-24T07:21:52.578Z,6.07
2023-02-24T07:24:33.602Z,5.63
2023-02-24T07:27:01.542Z,8.38
2023-02-24T07:29:29.852Z,9.40
2023-02-24T07:32:03.551Z,5.70
2023-02-24T07:34:34.557Z,7.38
2023-02-24T07:37:07.784Z,6.03
2023-02-24T07:39:36.839Z,7.50
2023-02-24T07:42:04.189Z,5.53
2023-02-24T07:44:31.061Z,6.00
2023-02-24T07:46:59.518Z,5.70
2023-02-24T07:49:28.072Z,12.02
2023-02-24T07:51:58.294Z,6.72
2023-02-24T07:54:27.275Z,7.82
2023-02-24T08:03:41.686Z,10.27
2023-02-24T08:06:26.627Z,7.78
2023-02-24T08:08:58.046Z,9.40
2023-02-24T08:11:35.736Z,8.60
2023-02-24T08:14:03.487Z,9.95
2023-02-24T08:16:42.349Z,8.38
2023-02-24T08:19:13.227Z,6.95
2023-02-24T08:21:41.702Z,8.67
2023-02-24T08:24:17.753Z,7.97
2023-02-24T08:26:45.888Z,18.33
2023-02-24T08:29:13.067Z,13.43
2023-02-24T08:31:40.043Z,19.20
2023-02-24T08:34:07.145Z,15.45
2023-02-24T08:36:34.225Z,14.30
2023-02-24T08:39:01.580Z,11.77
2023-02-24T08:41:45.459Z,16.92
2023-02-24T08:44:12.788Z,13.57
2023-02-24T08:46:40.326Z,10.93
2023-02-24T08:49:11.024Z,19.42
2023-02-24T08:51:44.074Z,9.88
2023-02-24T08:54:19.448Z,18.13
2023-02-24T08:56:56.004Z,19.20
2023-02-24T08:59:38.020Z,18.45
2023-02-24T09:02:24.410Z,75.68
2023-02-24T09:04:56.467Z,15.80
2023-02-24T09:07:28.233Z,17.42
2023-02-24T09:09:56.539Z,15.02
2023-02-24T09:12:28.855Z,15.50
2023-02-24T09:15:01.948Z,23.08
2023-02-24T09:17:50.544Z,20.25
2023-02-24T09:20:27.380Z,24.83
2023-02-24T09:23:00.634Z,26.13
2023-02-24T09:25:40.921Z,15.95
2023-02-24T09:28:17.467Z,21.15
2023-02-24T09:30:55.193Z,13.68
2023-02-24T09:33:38.980Z,18.17
2023-02-24T09:36:10.417Z,31.27
2023-02-24T09:39:00.234Z,47.03
2023-02-24T09:41:59.451Z,58.78
2023-02-24T09:44:29.003Z,36.33
2023-02-24T09:46:59.394Z,21.23
2023-02-24T09:49:46.515Z,26.35
2023-02-24T09:52:17.649Z,33.95
2023-02-24T09:55:06.284Z,18.63
2023-02-24T09:57:46.454Z,20.25
2023-02-24T10:00:25.586Z,22.52
2023-02-24T10:03:03.849Z,35.33
2023-02-24T10:05:38.744Z,25.20
2023-02-24T10:08:14.038Z,16.08
2023-02-24T10:11:00.872Z,15.00
2023-02-24T10:13:32.512Z,27.40
2023-02-24T10:16:07.114Z,11.50
2023-02-24T10:18:45.267Z,23.23
2023-02-24T10:21:48.493Z,10.07
2023-02-24T10:24:22.842Z,13.38
2023-02-24T10:27:01.306Z,11.15
2023-02-24T10:29:50.949Z,13.73
2023-02-24T10:32:31.720Z,7.47
2023-02-24T10:34:58.630Z,13.05
2023-02-24T10:37:29.603Z,9.50
2023-02-24T10:40:00.828Z,6.15
2023-02-24T10:42:31.724Z,6.03
2023-02-24T10:45:17.364Z,5.87
2023-02-24T10:47:45.967Z,6.25
2023-02-24T10:50:19.660Z,5.60
2023-02-24T10:53:05.010Z,4.82
2023-02-24T10:55:44.143Z,13.52
2023-02-24T10:58:16.111Z,10.27
2023-02-24T11:01:12.915Z,8.68
2023-02-24T11:03:46.254Z,7.15
2023-02-24T11:06:42.167Z,7.18
2023-02-24T11:09:30.493Z,10.30
2023-02-24T11:12:22.681Z,7.53
2023-02-24T11:15:15.651Z,8.23
2023-02-24T11:17:48.861Z,11.35
2023-02-24T11:20:19.280Z,10.70
2023-02-24T11:22:49.476Z,11.32
2023-02-24T11:25:21.180Z,11.63
2023-02-24T11:30:27.058Z,23.65
2023-02-24T11:33:10.448Z,14.80
2023-02-24T11:35:43.339Z,21.98
2023-02-24T11:38:31.807Z,12.20
2023-02-24T11:41:03.175Z,15.95
2023-02-24T11:43:31.531Z,8.63
2023-02-24T11:46:02.142Z,8.93
2023-02-24T11:48:49.227Z,17.13
2023-02-24T11:51:16.199Z,7.05
2023-02-24T11:53:51.144Z,10.07
2023-02-24T11:56:18.518Z,10.07
2023-02-24T11:58:51.931Z,7.65
2023-02-24T12:01:19.899Z,9.75
2023-02-24T12:03:54.060Z,9.98
2023-02-24T12:06:37.749Z,8.00
2023-02-24T12:09:15.797Z,9.73
2023-02-24T12:11:42.914Z,9.32
2023-02-24T12:14:21.462Z,8.88
2023-02-24T12:16:53.600Z,10.68
2023-02-24T12:19:43.687Z,11.30
2023-02-24T12:22:15.211Z,11.38
2023-02-24T12:24:47.291Z,11.15
2023-02-24T12:27:14.557Z,8.75
2023-02-24T12:29:48.813Z,11.35
2023-02-24T12:32:41.337Z,10.25
2023-02-24T12:35:20.092Z,9.30
2023-02-24T12:37:59.549Z,8.18
2023-02-24T12:40:48.559Z,11.95
2023-02-24T12:43:31.880Z,15.30
2023-02-24T12:46:17.332Z,10.90
2023-02-24T12:49:03.461Z,15.55
2023-02-24T12:51:51.579Z,16.52
2023-02-24T12:54:21.484Z,16.63
2023-02-24T12:56:54.825Z,14.63
2023-02-24T12:59:26.401Z,15.10
2023-02-24T13:04:38.881Z,12.75
2023-02-24T13:07:17.824Z,16.55
2023-02-24T13:09:44.631Z,17.38
2023-02-24T13:12:20.748Z,16.08
2023-02-24T13:14:48.382Z,25.35
2023-02-24T13:17:20.855Z,17.75
2023-02-24T13:19:49.019Z,18.00
2023-02-24T13:22:17.085Z,21.10
2023-02-24T13:24:57.088Z,22.33
2023-02-24T13:27:25.141Z,21.02
2023-02-24T13:29:54.024Z,18.67
2023-02-24T13:32:24.734Z,19.50
2023-02-24T13:34:51.852Z,20.15
2023-02-24T13:37:32.924Z,18.80
2023-02-24T13:40:00.130Z,11.67
2023-02-24T13:42:28.927Z,14.68
2023-02-24T13:45:01.926Z,22.20
2023-02-24T13:47:29.383Z,17.55
2023-02-24T13:50:02.524Z,17.48
2023-02-24T13:52:35.487Z,22.15
2023-02-24T13:55:10.199Z,44.40
2023-02-24T13:57:55.811Z,30.95
2023-02-24T14:00:35.152Z,36.33
2023-02-24T14:03:08.924Z,51.67
2023-02-24T14:05:36.489Z,27.08
2023-02-24T14:08:03.973Z,23.60
2023-02-24T14:10:33.430Z,16.95
2023-02-24T14:13:13.819Z,17.45
2023-02-24T14:15:42.462Z,18.55
2023-02-24T14:18:20.020Z,13.80
2023-02-24T14:20:47.069Z,18.25
2023-02-24T14:23:41.554Z,16.00
2023-02-24T14:26:12.377Z,9.93
2023-02-24T14:28:40.222Z,15.82
2023-02-24T14:31:09.561Z,14.50
2023-02-24T14:33:37.136Z,13.93
2023-02-24T14:36:05.056Z,11.25
2023-02-24T14:38:32.080Z,14.38
2023-02-24T14:40:58.869Z,10.02
2023-02-24T14:43:25.771Z,12.35
2023-02-24T14:45:53.439Z,11.63
2023-02-24T14:48:23.220Z,15.15
2023-02-24T14:50:53.277Z,14.35
2023-02-24T14:53:22.558Z,7.70
2023-02-24T14:55:51.724Z,13.60
2023-02-24T14:58:18.593Z,14.82
2023-02-24T15:00:54.534Z,14.25
2023-02-24T15:03:29.532Z,20.25
2023-02-24T15:05:58.243Z,15.93
2023-02-24T15:08:25.102Z,13.70
2023-02-24T15:10:53.419Z,15.73
2023-02-24T15:13:29.484Z,17.83
2023-02-24T15:15:57.162Z,17.05
2023-02-24T15:18:25.511Z,23.52
2023-02-24T15:21:06.800Z,17.20
2023-02-24T15:23:37.905Z,12.75
2023-02-24T15:26:10.836Z,27.03
2023-02-24T15:28:38.177Z,26.13
2023-02-24T15:31:16.949Z,18.00
2023-02-24T15:33:45.536Z,28.30
2023-02-24T15:36:17.810Z,13.43
2023-02-24T15:38:51.706Z,19.73
2023-02-24T15:41:18.613Z,14.05
2023-02-24T15:43:56.638Z,17.05
2023-02-24T15:46:34.154Z,26.45
2023-02-24T15:49:03.393Z,22.52
2023-02-24T15:51:47.198Z,16.67
2023-02-24T15:54:27.679Z,15.25
2023-02-24T15:56:57.103Z,19.50
2023-02-24T15:59:25.610Z,20.15
2023-02-24T16:01:52.550Z,16.83
2023-02-24T16:04:19.886Z,18.75
2023-02-24T16:06:55.054Z,16.77
2023-02-24T16:09:33.958Z,16.58
2023-02-24T16:12:04.220Z,19.48
2023-02-24T16:14:31.089Z,18.30
2023-02-24T16:16:58.960Z,17.58
2023-02-24T16:19:27.858Z,16.38
2023-02-24T16:21:58.066Z,14.15
2023-02-24T16:24:25.312Z,20.75
2023-02-24T16:26:52.533Z,20.20
2023-02-24T16:29:21.933Z,12.05
2023-02-24T16:31:49.065Z,20.45
2023-02-24T16:34:19.757Z,16.95
2023-02-24T16:36:47.951Z,14.52
2023-02-24T16:39:20.697Z,13.10
2023-02-24T16:41:47.776Z,22.20
2023-02-24T16:44:15.063Z,14.20
2023-02-24T16:46:45.064Z,24.33
2023-02-24T16:49:18.972Z,11.15
2023-02-24T16:51:45.897Z,15.32
2023-02-24T16:54:13.551Z,18.02
2023-02-24T16:56:40.524Z,15.90
2023-02-24T16:59:07.957Z,15.95
2023-02-24T17:01:35.012Z,18.45
2023-02-24T17:04:05.722Z,18.35
2023-02-24T17:06:32.736Z,8.82
2023-02-24T17:09:02.040Z,16.80
2023-02-24T17:11:29.170Z,14.40
2023-02-24T17:13:56.582Z,17.00
2023-02-24T17:16:23.878Z,16.83
2023-02-24T17:18:51.388Z,23.40
2023-02-24T17:21:18.639Z,13.80
2023-02-24T17:23:46.148Z,18.30
2023-02-24T17:26:14.288Z,17.38
2023-02-24T17:32:14.330Z,18.20
2023-02-24T17:34:41.619Z,15.10
2023-02-24T17:37:08.383Z,9.27
2023-02-24T17:39:37.696Z,11.00
2023-02-24T17:42:04.619Z,10.23
2023-02-24T17:44:31.729Z,8.43
2023-02-24T17:46:58.803Z,12.93
2023-02-24T17:49:25.677Z,16.30
2023-02-24T17:51:52.645Z,10.38
2023-02-24T17:54:19.653Z,8.50
2023-02-24T17:56:48.964Z,11.10
2023-02-24T17:59:20.234Z,12.85
2023-02-24T18:01:47.309Z,9.63
2023-02-24T18:04:14.847Z,10.00
2023-02-24T18:06:45.419Z,11.88
2023-02-24T18:09:13.039Z,12.65
2023-02-24T18:11:41.994Z,21.38
2023-02-24T18:14:15.277Z,10.05
2023-02-24T18:16:42.640Z,17.85
2023-02-24T18:19:12.558Z,16.38
2023-02-24T18:21:39.423Z,20.52
2023-02-24T18:24:07.670Z,21.83
2023-02-24T18:26:34.673Z,19.70
2023-02-24T18:29:02.772Z,22.52
2023-02-24T18:31:30.469Z,22.40
2023-02-24T18:34:06.478Z,20.20
2023-02-24T18:36:36.055Z,13.30
2023-02-24T18:39:03.066Z,23.48
2023-02-24T18:41:33.197Z,16.02
2023-02-24T18:44:00.351Z,17.45
2023-02-24T18:46:29.132Z,20.52
2023-02-24T18:48:57.807Z,15.40
2023-02-24T18:51:29.276Z,17.67
2023-02-24T18:54:00.967Z,27.85
2023-02-24T18:56:31.882Z,24.15
2023-02-24T18:58:59.555Z,21.42
2023-02-24T19:01:29.971Z,21.50
2023-02-24T19:04:00.639Z,17.75
2023-02-24T19:06:28.445Z,19.33
2023-02-24T19:08:58.681Z,20.08
2023-02-24T19:11:31.643Z,21.55
2023-02-24T19:13:59.613Z,18.90
2023-02-24T19:16:28.103Z,33.08
2023-02-24T19:18:56.506Z,17.90
2023-02-24T19:21:29.045Z,19.58
2023-02-24T19:23:58.969Z,41.10
2023-02-24T19:26:28.857Z,14.65
2023-02-24T19:29:01.301Z,27.95
2023-02-24T19:31:32.770Z,29.88
2023-02-24T19:34:05.249Z,24.52
2023-02-24T19:36:34.698Z,23.60
2023-02-24T19:39:02.112Z,27.77
2023-02-24T19:41:34.605Z,20.05
2023-02-24T19:44:05.754Z,27.58
2023-02-24T19:46:33.016Z,24.23
2023-02-24T19:49:06.861Z,26.27
2023-02-24T19:51:35.321Z,26.67
2023-02-24T19:54:11.489Z,39.58
2023-02-24T19:56:39.073Z,18.70
2023-02-24T19:59:07.112Z,30.02
2023-02-24T20:01:36.455Z,39.15
2023-02-24T20:04:04.709Z,25.15
2023-02-24T20:06:39.076Z,35.40
2023-02-24T20:09:10.723Z,33.78
2023-02-24T20:14:06.377Z,18.25
2023-02-24T20:16:35.822Z,26.70
2023-02-24T20:19:07.715Z,28.25
2023-02-24T20:21:35.232Z,23.88
2023-02-24T20:24:07.918Z,25.00
2023-02-24T20:26:44.364Z,26.95
2023-02-24T20:29:11.619Z,29.33
2023-02-24T20:31:42.113Z,31.13
2023-02-24T20:34:14.731Z,32.30
2023-02-24T20:36:43.974Z,23.77
2023-02-24T20:39:15.081Z,28.30
2023-02-24T20:41:42.539Z,25.02
2023-02-24T20:44:10.771Z,25.05
2023-02-24T20:46:37.816Z,23.33
2023-02-24T20:49:08.794Z,35.92
2023-02-24T20:51:41.176Z,19.98
2023-02-24T20:54:09.516Z,25.05
2023-02-24T20:56:37.231Z,25.55
2023-02-24T20:59:16.962Z,20.33
2023-02-24T21:01:47.083Z,19.88
2023-02-24T21:04:16.407Z,22.95
2023-02-24T21:06:46.593Z,26.75
2023-02-24T21:09:14.589Z,28.25
2023-02-24T21:11:43.873Z,20.27
2023-02-24T21:14:15.151Z,31.77
2023-02-24T21:16:42.311Z,24.85
2023-02-24T21:19:17.089Z,21.00
2023-02-24T21:21:44.058Z,19.33
2023-02-24T21:24:13.934Z,14.20
2023-02-24T21:26:41.112Z,17.27
2023-02-24T21:29:08.909Z,26.42
2023-02-24T21:31:35.957Z,14.45
2023-02-24T21:34:06.774Z,16.35
2023-02-24T21:36:33.979Z,28.13
2023-02-24T21:39:06.217Z,20.40
2023-02-24T21:41:36.274Z,13.85
2023-02-24T21:44:11.621Z,10.10
2023-02-24T21:46:38.948Z,17.75
2023-02-24T21:49:06.986Z,16.77
2023-02-24T21:51:34.128Z,17.25
2023-02-24T21:54:01.709Z,18.15
2023-02-24T21:56:29.340Z,15.10
2023-02-24T21:59:00.738Z,12.00
2023-02-24T22:01:29.749Z,13.65
2023-02-24T22:04:00.480Z,17.70
2023-02-24T22:06:33.262Z,11.05
2023-02-24T22:09:01.636Z,7.82
2023-02-24T22:11:30.074Z,15.48
2023-02-24T22:13:56.868Z,13.13
2023-02-24T22:16:25.138Z,15.20
2023-02-24T22:18:52.971Z,7.25
2023-02-24T22:21:22.152Z,12.15
2023-02-24T22:23:51.206Z,9.38
2023-02-24T22:26:18.948Z,5.85
2023-02-24T22:28:48.606Z,4.93
2023-02-24T22:31:17.123Z,7.45
2023-02-24T22:33:44.800Z,11.95
2023-02-24T22:36:15.882Z,6.88
2023-02-24T22:38:43.090Z,5.18
2023-02-24T22:41:14.155Z,4.63
2023-02-24T22:43:41.107Z,5.68
2023-02-24T22:46:09.220Z,4.03
2023-02-24T22:48:37.287Z,6.32
2023-02-24T22:51:06.112Z,7.25
2023-02-24T22:53:34.667Z,6.95
2023-02-24T22:56:01.527Z,2.50
2023-02-24T22:58:31.181Z,6.32
2023-02-24T23:00:59.677Z,2.42
2023-02-24T23:03:30.560Z,3.83
2023-02-24T23:06:01.745Z,4.70
2023-02-24T23:08:30.564Z,2.67
2023-02-24T23:11:03.570Z,5.93
2023-02-24T23:13:30.548Z,4.97
2023-02-24T23:16:00.647Z,8.50
2023-02-24T23:18:27.871Z,3.95
2023-02-24T23:21:03.552Z,2.60
2023-02-24T23:23:31.349Z,5.40
2023-02-24T23:25:58.498Z,4.53
2023-02-24T23:28:25.547Z,6.40
2023-02-24T23:30:53.696Z,3.17
2023-02-24T23:33:20.977Z,2.58
2023-02-24T23:35:47.872Z,3.75
2023-02-24T23:38:15.352Z,1.83
2023-02-24T23:40:50.112Z,1.85
2023-02-24T23:43:17.644Z,3.08
2023-02-24T23:45:45.104Z,3.42
2023-02-24T23:48:13.362Z,2.50
2023-02-24T23:50:41.134Z,3.53
2023-02-24T23:53:09.988Z,3.28
2023-02-24T23:55:39.386Z,2.38
2023-02-24T23:58:07.583Z,5.30
